createdAt,value
2017-11-26T00:01:10.384Z,81.40
2017-11-26T00:03:38.358Z,81.80
2017-11-26T00:06:06.337Z,81.90
2017-11-26T00:08:34.346Z,82.20
2017-11-26T00:11:02.341Z,82.80
2017-11-26T00:13:30.342Z,82.50
2017-11-26T00:15:58.528Z,83.20
2017-11-26T00:18:27.289Z,82.80
2017-11-26T00:20:55.273Z,82.60
2017-11-26T00:23:23.289Z,83.00
2017-11-26T00:25:51.290Z,83.20
2017-11-26T00:28:19.314Z,84.30
2017-11-26T00:30:47.298Z,84.40
2017-11-26T00:33:15.284Z,84.40
2017-11-26T00:35:43.273Z,84.40
2017-11-26T00:38:11.318Z,83.90
2017-11-26T00:40:40.057Z,83.20
2017-11-26T00:43:08.037Z,83.10
2017-11-26T00:45:36.045Z,82.80
2017-11-26T00:48:04.033Z,82.80
2017-11-26T00:50:32.017Z,82.40
2017-11-26T00:53:00.046Z,82.50
2017-11-26T00:55:28.234Z,83.20
2017-11-26T00:57:56.278Z,83.00
2017-11-26T01:00:24.402Z,83.40
2017-11-26T01:02:52.594Z,83.40
2017-11-26T01:05:20.650Z,83.30
2017-11-26T01:07:49.459Z,83.60
2017-11-26T01:10:18.238Z,84.10
2017-11-26T01:12:46.213Z,84.10
2017-11-26T01:15:14.249Z,84.20
2017-11-26T01:17:42.246Z,83.70
2017-11-26T01:20:10.234Z,83.70
2017-11-26T01:22:43.212Z,84.00
2017-11-26T01:25:11.194Z,83.40
2017-11-26T01:27:39.186Z,83.70
2017-11-26T01:30:07.197Z,83.30
2017-11-26T01:32:35.224Z,82.60
2017-11-26T01:35:04.007Z,82.70
2017-11-26T01:37:32.070Z,82.60
2017-11-26T01:40:00.119Z,84.00
2017-11-26T01:42:28.141Z,83.50
2017-11-26T01:44:56.159Z,83.30
2017-11-26T01:47:25.081Z,80.70
2017-11-26T01:49:53.137Z,80.60
2017-11-26T01:52:21.961Z,80.00
2017-11-26T01:54:49.976Z,80.00
2017-11-26T01:57:18.016Z,79.50
2017-11-26T01:59:46.795Z,78.60
2017-11-26T02:02:14.856Z,78.50
2017-11-26T02:04:42.900Z,79.50
2017-11-26T02:07:10.922Z,79.00
2017-11-26T02:09:38.961Z,79.10
2017-11-26T02:12:06.988Z,80.00
2017-11-26T02:14:35.022Z,80.60
2017-11-26T02:17:03.814Z,80.20
2017-11-26T02:19:32.628Z,80.70
2017-11-26T02:22:01.404Z,79.60
2017-11-26T02:24:29.452Z,79.60
2017-11-26T02:26:57.473Z,79.70
2017-11-26T02:29:25.512Z,79.70
2017-11-26T02:32:05.512Z,76.60
2017-11-26T02:34:45.364Z,76.30
2017-11-26T02:37:13.393Z,76.20
2017-11-26T02:39:41.423Z,76.30
2017-11-26T02:42:09.448Z,76.10
2017-11-26T02:44:38.230Z,78.20
2017-11-26T02:47:06.293Z,78.10
2017-11-26T02:49:34.310Z,76.20
2017-11-26T02:52:03.095Z,75.20
2017-11-26T02:54:31.125Z,75.90
2017-11-26T02:56:59.147Z,76.00
2017-11-26T02:59:27.175Z,74.70
2017-11-26T03:01:55.202Z,76.20
2017-11-26T03:04:23.229Z,77.30
2017-11-26T03:06:52.015Z,76.20
2017-11-26T03:09:20.083Z,76.10
2017-11-26T03:11:48.099Z,76.70
2017-11-26T03:14:16.904Z,77.20
2017-11-26T03:16:45.735Z,75.80
2017-11-26T03:19:13.747Z,75.70
2017-11-26T03:21:41.782Z,76.40
2017-11-26T03:24:10.573Z,75.80
2017-11-26T03:26:39.374Z,75.20
2017-11-26T03:29:08.156Z,72.50
2017-11-26T03:31:36.226Z,72.50
2017-11-26T03:34:04.240Z,73.50
2017-11-26T03:36:33.027Z,71.90
2017-11-26T03:39:01.056Z,71.80
2017-11-26T03:41:29.068Z,73.00
2017-11-26T03:43:57.106Z,72.60
2017-11-26T03:46:25.131Z,72.60
2017-11-26T03:48:53.164Z,71.90
2017-11-26T03:51:21.943Z,74.10
2017-11-26T03:53:50.799Z,73.90
2017-11-26T03:56:18.816Z,73.80
2017-11-26T03:58:46.830Z,75.50
2017-11-26T04:01:15.637Z,74.10
2017-11-26T04:03:43.653Z,74.00
2017-11-26T04:06:11.689Z,74.70
2017-11-26T04:08:40.472Z,75.70
2017-11-26T04:11:08.497Z,75.60
2017-11-26T04:13:36.518Z,76.20
2017-11-26T04:16:04.543Z,75.70
2017-11-26T04:18:33.332Z,76.90
2017-11-26T04:21:01.397Z,76.80
2017-11-26T04:23:29.411Z,76.80
2017-11-26T04:25:58.196Z,76.00
2017-11-26T04:28:26.991Z,75.90
2017-11-26T04:30:55.016Z,75.90
2017-11-26T04:33:23.048Z,75.20
2017-11-26T04:35:51.093Z,75.40
2017-11-26T04:38:19.158Z,74.60
2017-11-26T04:40:47.172Z,74.20
2017-11-26T04:43:15.193Z,74.80
2017-11-26T04:45:43.227Z,73.70
2017-11-26T04:48:11.249Z,72.90
2017-11-26T04:50:39.280Z,71.60
2017-11-26T04:53:07.295Z,72.20
2017-11-26T04:55:35.328Z,71.50
2017-11-26T04:58:04.112Z,71.90
2017-11-26T05:00:32.945Z,71.30
2017-11-26T05:03:00.965Z,71.20
2017-11-26T05:05:29.000Z,72.40
2017-11-26T05:07:57.789Z,71.10
2017-11-26T05:10:25.811Z,71.10
2017-11-26T05:12:53.843Z,71.40
2017-11-26T05:15:21.901Z,71.00
2017-11-26T05:17:49.929Z,70.80
2017-11-26T05:20:17.941Z,71.30
2017-11-26T05:22:45.972Z,70.80
2017-11-26T05:25:13.996Z,70.30
2017-11-26T05:27:42.029Z,71.40
2017-11-26T05:30:10.044Z,71.70
2017-11-26T05:32:38.847Z,70.80
2017-11-26T05:35:07.618Z,71.10
2017-11-26T05:37:37.158Z,71.70
2017-11-26T05:40:05.180Z,71.60
2017-11-26T05:42:33.233Z,71.10
2017-11-26T05:45:02.012Z,71.10
2017-11-26T05:47:30.028Z,71.00
2017-11-26T05:49:58.074Z,70.10
2017-11-26T05:52:26.083Z,70.60
2017-11-26T05:54:54.140Z,70.70
2017-11-26T05:57:22.168Z,71.20
2017-11-26T05:59:50.206Z,71.60
2017-11-26T06:02:19.748Z,70.90
2017-11-26T06:04:48.569Z,72.10
2017-11-26T06:07:16.583Z,71.90
2017-11-26T06:09:44.596Z,70.50
2017-11-26T06:12:13.411Z,70.90
2017-11-26T06:14:41.739Z,70.90
2017-11-26T06:17:09.760Z,70.40
2017-11-26T06:19:37.775Z,70.20
2017-11-26T06:22:06.577Z,69.20
2017-11-26T06:24:35.361Z,69.50
2017-11-26T06:27:03.431Z,69.50
2017-11-26T06:29:31.452Z,69.20
2017-11-26T06:32:00.250Z,70.10
2017-11-26T06:34:29.795Z,69.70
2017-11-26T06:36:57.832Z,69.70
2017-11-26T06:39:25.879Z,71.30
2017-11-26T06:41:53.879Z,68.70
2017-11-26T06:44:21.909Z,69.50
2017-11-26T06:46:50.703Z,70.40
2017-11-26T06:49:19.514Z,70.30
2017-11-26T06:51:48.284Z,69.00
2017-11-26T06:54:16.301Z,68.90
2017-11-26T06:56:44.328Z,69.70
2017-11-26T06:59:12.356Z,69.20
2017-11-26T07:01:41.156Z,69.30
2017-11-26T07:04:09.938Z,69.50
2017-11-26T07:06:37.971Z,69.30
2017-11-26T07:09:05.983Z,69.20
2017-11-26T07:11:34.082Z,70.20
2017-11-26T07:14:02.136Z,69.30
2017-11-26T07:16:30.152Z,69.00
2017-11-26T07:18:58.186Z,69.30
2017-11-26T07:21:26.205Z,69.30
2017-11-26T07:23:54.249Z,70.20
2017-11-26T07:26:22.269Z,69.40
2017-11-26T07:28:50.302Z,69.70
2017-11-26T07:31:18.311Z,70.40
2017-11-26T07:33:46.360Z,69.50
2017-11-26T07:36:15.140Z,69.50
2017-11-26T07:38:43.204Z,69.50
2017-11-26T07:41:11.232Z,70.40
2017-11-26T07:43:40.004Z,69.60
2017-11-26T07:46:08.044Z,69.50
2017-11-26T07:48:36.056Z,70.00
2017-11-26T07:51:04.084Z,70.10
2017-11-26T07:53:32.103Z,69.90
2017-11-26T07:56:00.160Z,70.30
2017-11-26T07:58:28.175Z,70.60
2017-11-26T08:00:56.237Z,70.30
2017-11-26T08:03:24.268Z,70.40
2017-11-26T08:05:52.283Z,69.20
2017-11-26T08:08:21.096Z,68.70
2017-11-26T08:10:49.108Z,68.50
2017-11-26T08:13:17.141Z,69.50
2017-11-26T08:15:46.844Z,70.10
2017-11-26T08:18:14.916Z,70.20
2017-11-26T08:20:42.942Z,69.30
2017-11-26T08:23:11.758Z,69.20
2017-11-26T08:25:40.636Z,69.30
2017-11-26T08:28:09.419Z,70.80
2017-11-26T08:30:37.449Z,70.70
2017-11-26T08:33:05.462Z,69.20
2017-11-26T08:35:33.500Z,68.40
2017-11-26T08:38:01.531Z,68.20
2017-11-26T08:40:29.573Z,68.80
2017-11-26T08:42:57.592Z,68.60
2017-11-26T08:45:25.612Z,69.20
2017-11-26T08:47:53.656Z,68.70
2017-11-26T08:50:21.684Z,67.80
2017-11-26T08:52:50.726Z,67.20
2017-11-26T08:55:18.751Z,67.70
2017-11-26T08:57:46.778Z,67.20
2017-11-26T09:00:14.900Z,67.20
2017-11-26T09:02:42.932Z,67.70
2017-11-26T09:05:11.703Z,66.10
2017-11-26T09:07:50.474Z,66.10
2017-11-26T09:10:19.277Z,67.10
2017-11-26T09:12:48.087Z,67.70
2017-11-26T09:15:16.120Z,67.50
2017-11-26T09:17:44.208Z,67.30
2017-11-26T09:20:12.260Z,67.30
2017-11-26T09:22:40.277Z,67.20
2017-11-26T09:25:08.324Z,67.30
2017-11-26T09:27:36.344Z,67.40
2017-11-26T09:30:04.382Z,64.80
2017-11-26T09:32:32.408Z,65.60
2017-11-26T09:35:00.456Z,66.90
2017-11-26T09:37:28.480Z,66.10
2017-11-26T09:39:56.493Z,66.10
2017-11-26T09:42:25.291Z,67.10
2017-11-26T09:44:54.084Z,67.40
2017-11-26T09:47:22.172Z,67.40
2017-11-26T09:49:50.960Z,67.60
2017-11-26T09:52:19.024Z,67.50
2017-11-26T09:54:47.055Z,66.70
2017-11-26T09:57:15.114Z,65.20
2017-11-26T09:59:43.143Z,65.50
2017-11-26T10:02:11.152Z,65.50
2017-11-26T10:04:39.184Z,67.50
2017-11-26T10:07:07.201Z,65.70
2017-11-26T10:09:35.251Z,65.30
2017-11-26T10:12:03.280Z,66.00
2017-11-26T10:14:31.285Z,65.30
2017-11-26T10:17:00.862Z,65.50
2017-11-26T10:19:28.872Z,65.40
2017-11-26T10:21:56.910Z,66.50
2017-11-26T10:24:24.920Z,67.60
2017-11-26T10:26:52.980Z,64.20
2017-11-26T10:29:20.999Z,65.80
2017-11-26T10:31:49.077Z,64.10
2017-11-26T10:34:17.091Z,66.20
2017-11-26T10:36:45.111Z,63.80
2017-11-26T10:39:13.143Z,63.40
2017-11-26T10:41:41.164Z,63.00
2017-11-26T10:44:09.986Z,63.70
2017-11-26T10:46:38.000Z,63.70
2017-11-26T10:49:06.031Z,60.30
2017-11-26T10:51:34.835Z,62.20
2017-11-26T10:54:03.653Z,60.40
2017-11-26T10:56:31.668Z,60.30
2017-11-26T10:58:59.684Z,61.60
2017-11-26T11:01:28.498Z,60.70
2017-11-26T11:03:57.270Z,59.70
2017-11-26T11:06:25.301Z,59.60
2017-11-26T11:08:53.332Z,58.70
2017-11-26T11:11:21.373Z,59.50
2017-11-26T11:13:49.393Z,59.20
2017-11-26T11:16:17.423Z,58.10
2017-11-26T11:18:46.203Z,58.40
2017-11-26T11:21:15.003Z,58.50
2017-11-26T11:23:43.017Z,58.40
2017-11-26T11:26:11.053Z,59.00
2017-11-26T11:28:39.068Z,57.80
2017-11-26T11:31:07.869Z,57.80
2017-11-26T11:33:36.711Z,57.80
2017-11-26T11:36:04.740Z,57.60
2017-11-26T11:38:32.785Z,57.90
2017-11-26T11:41:00.812Z,58.20
2017-11-26T11:43:29.596Z,56.10
2017-11-26T11:45:57.644Z,55.80
2017-11-26T11:48:25.672Z,56.00
2017-11-26T11:50:53.680Z,56.80
2017-11-26T11:53:21.745Z,54.60
2017-11-26T11:55:49.784Z,55.00
2017-11-26T11:58:17.856Z,54.60
2017-11-26T12:00:45.913Z,55.30
2017-11-26T12:03:14.699Z,56.00
2017-11-26T12:05:43.483Z,55.90
2017-11-26T12:08:11.557Z,55.80
2017-11-26T12:10:39.576Z,57.10
2017-11-26T12:13:08.357Z,58.00
2017-11-26T12:15:36.392Z,57.90
2017-11-26T12:18:04.417Z,58.10
2017-11-26T12:20:34.315Z,57.90
2017-11-26T12:23:02.344Z,58.70
2017-11-26T12:25:31.257Z,59.30
2017-11-26T12:28:00.041Z,58.70
2017-11-26T12:30:30.355Z,58.70
2017-11-26T12:32:58.370Z,58.70
2017-11-26T12:35:27.233Z,58.70
2017-11-26T12:37:55.268Z,58.20
2017-11-26T12:40:24.069Z,58.10
2017-11-26T12:42:54.188Z,57.60
2017-11-26T12:45:22.972Z,58.70
2017-11-26T12:47:51.521Z,58.70
2017-11-26T12:50:21.305Z,58.70
2017-11-26T12:52:51.304Z,58.70
2017-11-26T12:55:20.044Z,58.60
2017-11-26T12:57:48.824Z,58.10
2017-11-26T13:00:16.867Z,57.90
2017-11-26T13:02:44.892Z,57.90
2017-11-26T13:05:12.920Z,58.70
2017-11-26T13:07:40.940Z,58.70
2017-11-26T13:10:09.000Z,58.70
2017-11-26T13:12:37.028Z,58.70
2017-11-26T13:15:05.034Z,58.70
2017-11-26T13:17:33.945Z,58.90
2017-11-26T13:20:01.964Z,58.90
2017-11-26T13:22:29.995Z,58.00
2017-11-26T13:24:58.777Z,55.90
2017-11-26T13:27:26.858Z,55.80
2017-11-26T13:29:54.871Z,56.80
2017-11-26T13:32:23.656Z,56.10
2017-11-26T13:34:51.689Z,56.00
2017-11-26T13:37:19.717Z,56.80
2017-11-26T13:39:47.747Z,55.30
2017-11-26T13:42:15.766Z,55.70
2017-11-26T13:44:43.813Z,54.90
2017-11-26T13:47:11.828Z,55.20
2017-11-26T13:49:39.853Z,55.50
2017-11-26T13:52:08.652Z,55.40
2017-11-26T13:54:37.437Z,56.10
2017-11-26T13:57:06.245Z,56.10
2017-11-26T13:59:34.288Z,56.10
2017-11-26T14:02:02.359Z,55.10
2017-11-26T14:04:30.397Z,55.50
2017-11-26T14:06:58.405Z,55.70
2017-11-26T14:09:26.436Z,55.90
2017-11-26T14:11:54.469Z,56.10
2017-11-26T14:14:22.535Z,56.00
2017-11-26T14:16:51.317Z,55.70
2017-11-26T14:19:20.899Z,56.10
2017-11-26T14:21:48.925Z,56.10
2017-11-26T14:24:16.968Z,56.20
2017-11-26T14:26:45.307Z,56.70
2017-11-26T14:29:14.108Z,56.40
2017-11-26T14:31:42.925Z,56.30
2017-11-26T14:35:10.789Z,56.20
2017-11-26T14:37:38.821Z,56.00
2017-11-26T14:40:06.840Z,56.30
2017-11-26T14:42:34.875Z,57.40
2017-11-26T14:45:02.900Z,57.50
2017-11-26T14:47:30.912Z,57.40
2017-11-26T14:49:58.972Z,58.30
2017-11-26T14:52:27.008Z,57.70
2017-11-26T14:54:55.029Z,58.40
2017-11-26T14:57:23.065Z,58.70
2017-11-26T14:59:51.080Z,58.60
2017-11-26T15:02:19.108Z,59.50
2017-11-26T15:04:47.132Z,59.50
2017-11-26T15:07:15.180Z,60.20
2017-11-26T15:09:43.212Z,61.20
2017-11-26T15:12:11.230Z,60.80
2017-11-26T15:14:39.270Z,60.90
2017-11-26T15:17:07.287Z,60.40
2017-11-26T15:19:35.333Z,61.80
2017-11-26T15:22:03.340Z,60.50
2017-11-26T15:24:31.381Z,60.70
2017-11-26T15:27:00.159Z,60.60
2017-11-26T15:29:28.176Z,60.40
2017-11-26T15:31:56.225Z,61.50
2017-11-26T15:34:25.744Z,61.50
2017-11-26T15:36:53.783Z,61.40
2017-11-26T15:39:21.812Z,62.70
2017-11-26T15:41:49.886Z,62.30
2017-11-26T15:44:17.903Z,62.80
2017-11-26T15:46:45.964Z,63.60
2017-11-26T15:49:13.984Z,63.90
2017-11-26T15:51:42.015Z,64.00
2017-11-26T15:54:10.044Z,63.50
2017-11-26T15:56:38.079Z,64.90
2017-11-26T15:59:06.116Z,63.60
2017-11-26T16:01:34.152Z,63.20
2017-11-26T16:04:02.235Z,62.90
2017-11-26T16:06:30.248Z,62.90
2017-11-26T16:08:59.028Z,63.70
2017-11-26T16:11:27.065Z,63.70
2017-11-26T16:13:55.108Z,64.60
2017-11-26T16:16:23.919Z,65.30
2017-11-26T16:18:52.734Z,65.70
2017-11-26T16:21:21.533Z,65.60
2017-11-26T16:23:49.563Z,65.60
2017-11-26T16:26:17.571Z,65.90
2017-11-26T16:28:46.368Z,67.30
2017-11-26T16:31:14.392Z,67.10
2017-11-26T16:33:42.424Z,67.30
2017-11-26T16:36:10.436Z,66.40
2017-11-26T16:38:39.235Z,67.20
2017-11-26T16:41:08.021Z,67.20
2017-11-26T16:43:36.085Z,67.20
2017-11-26T16:46:04.096Z,67.10
2017-11-26T16:48:32.872Z,67.20
2017-11-26T16:51:00.912Z,67.10
2017-11-26T16:53:28.937Z,67.20
2017-11-26T16:55:56.968Z,67.70
2017-11-26T16:58:24.991Z,67.20
2017-11-26T17:00:53.124Z,67.20
2017-11-26T17:03:21.156Z,67.20
2017-11-26T17:05:49.183Z,67.10
2017-11-26T17:08:17.975Z,68.10
2017-11-26T17:10:45.992Z,67.60
2017-11-26T17:13:14.029Z,67.90
2017-11-26T17:15:42.064Z,68.10
2017-11-26T17:18:10.120Z,68.90
2017-11-26T17:20:38.911Z,69.40
2017-11-26T17:23:07.696Z,69.80
2017-11-26T17:25:35.724Z,69.60
2017-11-26T17:28:03.744Z,69.40
2017-11-26T17:30:31.772Z,69.30
2017-11-26T17:33:00.564Z,70.70
2017-11-26T17:35:29.430Z,70.70
2017-11-26T17:37:57.441Z,70.50
2017-11-26T17:40:25.494Z,70.70
2017-11-26T17:43:01.055Z,70.50
2017-11-26T17:45:29.992Z,71.00
2017-11-26T17:47:59.720Z,70.80
2017-11-26T17:50:27.733Z,70.40
2017-11-26T17:52:55.798Z,70.90
2017-11-26T17:55:27.277Z,70.80
2017-11-26T17:57:55.332Z,70.60
2017-11-26T18:00:24.623Z,70.90
2017-11-26T18:02:52.728Z,71.40
2017-11-26T18:05:22.505Z,71.90
2017-11-26T18:07:55.360Z,73.00
2017-11-26T18:10:25.067Z,72.30
2017-11-26T18:15:31.516Z,71.80
2017-11-26T18:17:59.535Z,71.60
2017-11-26T18:20:27.550Z,71.60
2017-11-26T18:22:55.593Z,72.40
2017-11-26T18:25:23.644Z,72.70
2017-11-26T18:27:51.689Z,71.40
2017-11-26T18:30:19.708Z,72.20
2017-11-26T18:32:47.784Z,71.50
2017-11-26T18:35:27.529Z,71.50
2017-11-26T18:37:58.968Z,71.70
2017-11-26T18:40:27.793Z,71.00
2017-11-26T18:42:55.829Z,70.80
2017-11-26T18:45:25.163Z,70.90
2017-11-26T18:47:53.178Z,70.80
2017-11-26T18:50:21.220Z,71.60
2017-11-26T18:52:49.232Z,73.10
2017-11-26T18:55:56.559Z,71.20
2017-11-26T18:58:25.370Z,71.40
2017-11-26T19:00:54.150Z,71.00
2017-11-26T19:03:22.945Z,72.00
2017-11-26T19:05:50.984Z,71.20
2017-11-26T19:10:58.163Z,70.00
2017-11-26T19:13:26.216Z,69.80
2017-11-26T19:15:54.424Z,69.70
2017-11-26T19:18:23.224Z,69.70
2017-11-26T19:20:51.258Z,69.70
2017-11-26T19:23:19.284Z,69.50
2017-11-26T19:25:48.184Z,69.20
2017-11-26T19:28:16.236Z,68.80
2017-11-26T19:30:44.244Z,69.20
2017-11-26T19:33:12.290Z,69.70
2017-11-26T19:35:40.307Z,70.50
2017-11-26T19:38:08.372Z,70.20
2017-11-26T19:40:36.388Z,68.80
2017-11-26T19:43:04.400Z,69.00
2017-11-26T19:45:33.200Z,67.60
2017-11-26T19:48:01.997Z,67.50
2017-11-26T19:50:30.867Z,68.70
2017-11-26T19:52:58.984Z,68.60
2017-11-26T19:55:27.083Z,69.40
2017-11-26T19:57:55.876Z,68.00
2017-11-26T20:00:24.670Z,67.40
2017-11-26T20:02:52.781Z,67.20
2017-11-26T20:05:20.824Z,67.20
2017-11-26T20:07:48.848Z,67.20
2017-11-26T20:10:16.872Z,67.20
2017-11-26T20:12:44.930Z,67.20
2017-11-26T20:15:12.946Z,67.20
2017-11-26T20:17:40.977Z,67.20
2017-11-26T20:20:09.763Z,67.20
2017-11-26T20:22:38.541Z,67.20
2017-11-26T20:25:06.572Z,67.10
2017-11-26T20:27:34.589Z,67.60
2017-11-26T20:30:02.616Z,67.20
2017-11-26T20:32:31.409Z,67.30
2017-11-26T20:35:00.217Z,67.20
2017-11-26T20:37:28.996Z,67.20
2017-11-26T20:39:57.036Z,67.20
2017-11-26T20:42:25.086Z,67.20
2017-11-26T20:44:53.869Z,67.20
2017-11-26T20:47:21.945Z,67.20
2017-11-26T20:49:49.960Z,67.20
2017-11-26T20:52:17.988Z,68.10
2017-11-26T20:54:46.020Z,67.20
2017-11-26T20:57:14.799Z,67.30
2017-11-26T20:59:42.852Z,67.20
2017-11-26T21:02:10.868Z,67.30
2017-11-26T21:04:39.111Z,67.50
2017-11-26T21:07:07.139Z,67.20
2017-11-26T21:09:35.151Z,67.30
2017-11-26T21:12:03.205Z,67.30
2017-11-26T21:14:31.212Z,67.30
2017-11-26T21:17:00.038Z,67.30
2017-11-26T21:19:28.049Z,67.30
2017-11-26T21:21:56.120Z,67.30
2017-11-26T21:24:24.146Z,67.30
2017-11-26T21:26:52.171Z,67.20
2017-11-26T21:29:20.201Z,67.30
2017-11-26T21:31:48.224Z,67.30
2017-11-26T21:34:16.264Z,67.70
2017-11-26T21:36:44.275Z,67.70
2017-11-26T21:39:13.096Z,68.20
2017-11-26T21:41:41.129Z,68.00
2017-11-26T21:44:09.141Z,67.30
2017-11-26T21:46:37.940Z,67.30
2017-11-26T21:49:06.729Z,67.30
2017-11-26T21:51:34.756Z,67.30
2017-11-26T21:54:02.768Z,67.30
2017-11-26T21:56:30.825Z,67.30
2017-11-26T21:58:58.845Z,67.20
2017-11-26T22:01:26.861Z,67.20
2017-11-26T22:03:54.948Z,67.30
2017-11-26T22:06:23.740Z,67.70
2017-11-26T22:08:51.768Z,67.60
2017-11-26T22:11:19.790Z,67.20
2017-11-26T22:13:47.842Z,67.20
2017-11-26T22:16:15.852Z,67.20
2017-11-26T22:18:45.380Z,67.20
2017-11-26T22:21:13.420Z,67.20
2017-11-26T22:23:41.440Z,67.80
2017-11-26T22:26:09.476Z,67.70
2017-11-26T22:28:37.484Z,67.90
2017-11-26T22:31:05.511Z,67.30
2017-11-26T22:33:34.296Z,68.10
2017-11-26T22:36:02.332Z,68.10
2017-11-26T22:38:30.349Z,67.70
2017-11-26T22:40:58.405Z,67.80
2017-11-26T22:43:26.422Z,68.20
2017-11-26T22:45:54.431Z,69.10
2017-11-26T22:48:23.240Z,68.30
2017-11-26T22:50:52.017Z,68.20
2017-11-26T22:53:20.824Z,68.60
2017-11-26T22:55:49.623Z,68.80
2017-11-26T22:58:17.675Z,68.80
2017-11-26T23:00:45.689Z,67.70
2017-11-26T23:03:14.494Z,67.50
2017-11-26T23:05:43.275Z,67.90
2017-11-26T23:08:11.312Z,67.90
2017-11-26T23:10:39.340Z,68.70
2017-11-26T23:13:07.400Z,69.80
2017-11-26T23:15:35.416Z,68.70
2017-11-26T23:18:03.440Z,67.90
2017-11-26T23:20:31.460Z,68.10
2017-11-26T23:22:59.482Z,68.60
2017-11-26T23:25:28.280Z,69.10
2017-11-26T23:27:57.068Z,68.90
2017-11-26T23:30:25.149Z,68.70
2017-11-26T23:32:53.159Z,68.60
2017-11-26T23:35:21.197Z,68.70
2017-11-26T23:37:49.228Z,69.30
2017-11-26T23:40:18.003Z,68.70
2017-11-26T23:42:46.802Z,69.20
2017-11-26T23:45:14.829Z,69.10
2017-11-26T23:47:42.876Z,69.90
2017-11-26T23:50:11.656Z,69.60
2017-11-26T23:52:39.672Z,69.50
2017-11-26T23:55:08.467Z,69.20
2017-11-26T23:57:37.253Z,69.70
